Terminal Aerodrome Forecast
Issued by NWS

Current Version | Previous Version | Graphics & Text | Print | Product List | Glossary On
Versions: 1 2 3 4 5 6 7 8 9 10 11 12 13 14 15 16 17 18 19 20 21 22 23 24 25 26 27 28
000
FTUS41 KRLX 051739
TAFCKB
TAF
KCKB 051739Z 0518/0618 VRB03KT P6SM VCSH SCT200
     FM051900 VRB03KT 6SM SHRA OVC060
     FM060600 00000KT 4SM BR OVC060
     FM060900 00000KT 3SM BR BKN025 OVC050
     FM061200 00000KT 3SM BR OVC015
     FM061500 21004KT 5SM SHRA OVC015=

USA.gov is the U.S. government's official web portal to all federal, state and local government web resources and services.